KSKF/SKF METAR and TAF weather

Enter ICAO airport designator
Station Type Date Time Source
KSKF METAR 2019/12/07 14:56 UTC NOAA

KSKF 071456Z AUTO 03006KT 10SM CLR 11/04 A3029 RMK AO2 SLP257 T01140039 52011


Station Type Date Time Source
KSKF Decoded METAR 2019/12/07 14:56 UTC NOAA

Kelly Air Force Base, TX, United States (KSKF) 29-23N 098-35W
Dec 07, 2019 - 09:56 AM EST / 2019.12.07 1456 UTC
Wind: from the NNE (030 degrees) at 7 MPH (6 KT):0
Visibility: 10 mile(s):0
Sky conditions: clear
Temperature: 52.5 F (11.4 C)
Dew Point: 39.0 F (3.9 C)
Relative Humidity: 59%
Pressure (altimeter): 30.29 in. Hg (1025 hPa)
Pressure tendency: 0.03 inches (1.1 hPa) higher than three hours ago
ob: KSKF 071456Z AUTO 03006KT 10SM CLR 11/04 A3029 RMK AO2 SLP257 T01140039 52011
cycle: 15

Station Type Date Time Source
KSKF TAF 2019/12/07 10:42 UTC NOAA

TAF KSKF 071000Z 0710/0816 02006KT 9999 FEW250 QNH3022INS
BECMG 0717/0718 18010KT 9999 SCT012 QNH3018INS TX20/0720Z TN08/0711Z

Example: see airport list